sensor_id;sensor_type;location;lat;lon;timestamp;temperature;humidity
18502;DHT22;68437;52.236;5.710;2023-11-18T00:01:44;5.00;99.90
18502;DHT22;68437;52.236;5.710;2023-11-18T00:04:11;4.90;99.90
18502;DHT22;68437;52.236;5.710;2023-11-18T00:06:41;5.00;99.90
18502;DHT22;68437;52.236;5.710;2023-11-18T00:09:09;5.00;99.90
18502;DHT22;68437;52.236;5.710;2023-11-18T00:11:38;5.00;99.90
18502;DHT22;68437;52.236;5.710;2023-11-18T00:14:05;5.10;99.90
18502;DHT22;68437;52.236;5.710;2023-11-18T00:16:33;5.10;99.90
18502;DHT22;68437;52.236;5.710;2023-11-18T00:19:00;5.10;99.90
18502;DHT22;68437;52.236;5.710;2023-11-18T00:21:30;5.10;99.90
18502;DHT22;68437;52.236;5.710;2023-11-18T00:23:57;5.10;99.90
18502;DHT22;68437;52.236;5.710;2023-11-18T00:26:23;5.00;99.90
18502;DHT22;68437;52.236;5.710;2023-11-18T00:28:51;5.10;99.90
18502;DHT22;68437;52.236;5.710;2023-11-18T00:31:18;5.10;99.90
18502;DHT22;68437;52.236;5.710;2023-11-18T00:33:46;5.10;99.90
18502;DHT22;68437;52.236;5.710;2023-11-18T00:36:13;5.10;99.90
18502;DHT22;68437;52.236;5.710;2023-11-18T00:38:40;5.20;99.90
18502;DHT22;68437;52.236;5.710;2023-11-18T00:41:07;5.20;99.90
18502;DHT22;68437;52.236;5.710;2023-11-18T00:43:33;5.20;99.90
18502;DHT22;68437;52.236;5.710;2023-11-18T00:46:00;5.20;99.90
18502;DHT22;68437;52.236;5.710;2023-11-18T00:48:29;5.10;99.90
18502;DHT22;68437;52.236;5.710;2023-11-18T00:50:59;5.30;99.90
18502;DHT22;68437;52.236;5.710;2023-11-18T00:53:26;5.10;99.90
18502;DHT22;68437;52.236;5.710;2023-11-18T00:55:53;5.10;99.90
18502;DHT22;68437;52.236;5.710;2023-11-18T00:58:20;5.10;99.90
18502;DHT22;68437;52.236;5.710;2023-11-18T01:00:46;5.10;99.90
18502;DHT22;68437;52.236;5.710;2023-11-18T01:03:15;5.10;99.90
18502;DHT22;68437;52.236;5.710;2023-11-18T01:05:45;5.10;99.90
18502;DHT22;68437;52.236;5.710;2023-11-18T01:08:13;5.00;99.90
18502;DHT22;68437;52.236;5.710;2023-11-18T01:10:40;5.00;99.90
18502;DHT22;68437;52.236;5.710;2023-11-18T01:13:07;5.00;99.90
18502;DHT22;68437;52.236;5.710;2023-11-18T01:15:34;5.00;99.90
18502;DHT22;68437;52.236;5.710;2023-11-18T01:18:01;5.00;99.90
18502;DHT22;68437;52.236;5.710;2023-11-18T01:20:28;5.00;99.90
18502;DHT22;68437;52.236;5.710;2023-11-18T01:22:55;4.90;99.90
18502;DHT22;68437;52.236;5.710;2023-11-18T01:25:23;4.90;99.90
18502;DHT22;68437;52.236;5.710;2023-11-18T01:27:51;4.90;99.90
18502;DHT22;68437;52.236;5.710;2023-11-18T01:30:17;4.90;99.90
18502;DHT22;68437;52.236;5.710;2023-11-18T01:32:44;4.90;99.90
18502;DHT22;68437;52.236;5.710;2023-11-18T01:35:11;4.90;99.90
18502;DHT22;68437;52.236;5.710;2023-11-18T01:37:38;5.00;99.90
18502;DHT22;68437;52.236;5.710;2023-11-18T01:40:06;5.00;99.90
18502;DHT22;68437;52.236;5.710;2023-11-18T01:42:35;5.00;99.90
18502;DHT22;68437;52.236;5.710;2023-11-18T01:45:03;5.00;99.90
18502;DHT22;68437;52.236;5.710;2023-11-18T01:47:31;5.10;99.90
18502;DHT22;68437;52.236;5.710;2023-11-18T01:49:59;5.10;99.90
18502;DHT22;68437;52.236;5.710;2023-11-18T01:52:28;5.10;99.90
18502;DHT22;68437;52.236;5.710;2023-11-18T01:54:56;5.10;99.90
18502;DHT22;68437;52.236;5.710;2023-11-18T01:57:23;5.10;99.90
18502;DHT22;68437;52.236;5.710;2023-11-18T01:59:53;5.10;99.90
18502;DHT22;68437;52.236;5.710;2023-11-18T02:02:20;5.10;99.90
18502;DHT22;68437;52.236;5.710;2023-11-18T02:04:47;5.10;99.90
18502;DHT22;68437;52.236;5.710;2023-11-18T02:07:14;5.10;99.90
18502;DHT22;68437;52.236;5.710;2023-11-18T02:09:41;5.20;99.90
18502;DHT22;68437;52.236;5.710;2023-11-18T02:12:18;5.10;99.90
18502;DHT22;68437;52.236;5.710;2023-11-18T02:14:48;5.20;99.90
18502;DHT22;68437;52.236;5.710;2023-11-18T02:17:20;5.20;99.90
18502;DHT22;68437;52.236;5.710;2023-11-18T02:19:52;5.20;99.90
18502;DHT22;68437;52.236;5.710;2023-11-18T02:22:20;5.20;99.90
18502;DHT22;68437;52.236;5.710;2023-11-18T02:24:49;5.20;99.90
18502;DHT22;68437;52.236;5.710;2023-11-18T02:27:20;5.20;99.90
18502;DHT22;68437;52.236;5.710;2023-11-18T02:29:48;5.20;99.90
18502;DHT22;68437;52.236;5.710;2023-11-18T02:32:23;5.20;99.90
18502;DHT22;68437;52.236;5.710;2023-11-18T02:34:58;5.20;99.90
18502;DHT22;68437;52.236;5.710;2023-11-18T02:37:28;5.20;99.90
18502;DHT22;68437;52.236;5.710;2023-11-18T02:40:02;5.20;99.90
18502;DHT22;68437;52.236;5.710;2023-11-18T02:42:36;5.20;99.90
18502;DHT22;68437;52.236;5.710;2023-11-18T02:45:06;5.20;99.90
18502;DHT22;68437;52.236;5.710;2023-11-18T02:47:33;5.30;99.90
18502;DHT22;68437;52.236;5.710;2023-11-18T02:50:00;5.30;99.90
18502;DHT22;68437;52.236;5.710;2023-11-18T02:52:36;5.30;99.90
18502;DHT22;68437;52.236;5.710;2023-11-18T02:55:04;5.30;99.90
18502;DHT22;68437;52.236;5.710;2023-11-18T02:57:32;5.30;99.90
18502;DHT22;68437;52.236;5.710;2023-11-18T03:00:00;5.30;99.90
18502;DHT22;68437;52.236;5.710;2023-11-18T03:02:28;5.30;99.90
18502;DHT22;68437;52.236;5.710;2023-11-18T03:04:56;5.30;99.90
18502;DHT22;68437;52.236;5.710;2023-11-18T03:07:23;5.30;99.90
18502;DHT22;68437;52.236;5.710;2023-11-18T03:09:52;5.30;99.90
18502;DHT22;68437;52.236;5.710;2023-11-18T03:12:21;5.30;99.90
18502;DHT22;68437;52.236;5.710;2023-11-18T03:14:48;5.30;99.90
18502;DHT22;68437;52.236;5.710;2023-11-18T03:17:16;5.30;99.90
18502;DHT22;68437;52.236;5.710;2023-11-18T03:19:43;5.30;99.90
18502;DHT22;68437;52.236;5.710;2023-11-18T03:22:10;5.30;99.90
18502;DHT22;68437;52.236;5.710;2023-11-18T03:24:38;5.30;99.90
18502;DHT22;68437;52.236;5.710;2023-11-18T03:27:05;5.30;99.90
18502;DHT22;68437;52.236;5.710;2023-11-18T03:29:36;5.30;99.90
18502;DHT22;68437;52.236;5.710;2023-11-18T03:32:06;5.30;99.90
18502;DHT22;68437;52.236;5.710;2023-11-18T03:34:34;5.30;99.90
18502;DHT22;68437;52.236;5.710;2023-11-18T03:37:01;5.30;99.90
18502;DHT22;68437;52.236;5.710;2023-11-18T03:39:27;5.30;99.90
18502;DHT22;68437;52.236;5.710;2023-11-18T03:41:57;5.40;99.90
18502;DHT22;68437;52.236;5.710;2023-11-18T03:44:24;5.30;99.90
18502;DHT22;68437;52.236;5.710;2023-11-18T03:46:50;5.40;99.90
18502;DHT22;68437;52.236;5.710;2023-11-18T03:49:17;5.40;99.90
18502;DHT22;68437;52.236;5.710;2023-11-18T03:51:46;5.30;99.90
18502;DHT22;68437;52.236;5.710;2023-11-18T03:54:13;5.30;99.90
18502;DHT22;68437;52.236;5.710;2023-11-18T03:56:40;5.30;99.90
18502;DHT22;68437;52.236;5.710;2023-11-18T03:59:07;5.30;99.90
18502;DHT22;68437;52.236;5.710;2023-11-18T04:01:37;5.30;99.90
18502;DHT22;68437;52.236;5.710;2023-11-18T04:04:06;5.30;99.90
18502;DHT22;68437;52.236;5.710;2023-11-18T04:06:33;5.30;99.90
18502;DHT22;68437;52.236;5.710;2023-11-18T04:09:01;5.30;99.90
18502;DHT22;68437;52.236;5.710;2023-11-18T04:11:29;5.30;99.90
18502;DHT22;68437;52.236;5.710;2023-11-18T04:13:56;5.30;99.90
18502;DHT22;68437;52.236;5.710;2023-11-18T04:16:23;5.30;99.90
18502;DHT22;68437;52.236;5.710;2023-11-18T04:18:50;5.30;99.90
18502;DHT22;68437;52.236;5.710;2023-11-18T04:21:16;5.30;99.90
18502;DHT22;68437;52.236;5.710;2023-11-18T04:23:44;5.20;99.90
18502;DHT22;68437;52.236;5.710;2023-11-18T04:26:13;5.20;99.90
18502;DHT22;68437;52.236;5.710;2023-11-18T04:28:40;5.30;99.90
18502;DHT22;68437;52.236;5.710;2023-11-18T04:31:07;5.30;99.90
18502;DHT22;68437;52.236;5.710;2023-11-18T04:33:34;5.30;99.90
18502;DHT22;68437;52.236;5.710;2023-11-18T04:36:00;5.30;99.90
18502;DHT22;68437;52.236;5.710;2023-11-18T04:38:28;5.30;99.90
18502;DHT22;68437;52.236;5.710;2023-11-18T04:40:58;5.30;99.90
18502;DHT22;68437;52.236;5.710;2023-11-18T04:43:26;5.30;99.90
18502;DHT22;68437;52.236;5.710;2023-11-18T04:45:52;5.20;99.90
18502;DHT22;68437;52.236;5.710;2023-11-18T04:48:20;5.30;99.90
18502;DHT22;68437;52.236;5.710;2023-11-18T04:50:47;5.30;99.90
18502;DHT22;68437;52.236;5.710;2023-11-18T04:53:14;5.30;99.90
18502;DHT22;68437;52.236;5.710;2023-11-18T04:55:41;5.30;99.90
18502;DHT22;68437;52.236;5.710;2023-11-18T04:58:09;5.30;99.90
18502;DHT22;68437;52.236;5.710;2023-11-18T05:00:38;5.40;99.90
18502;DHT22;68437;52.236;5.710;2023-11-18T05:03:05;5.40;99.90
18502;DHT22;68437;52.236;5.710;2023-11-18T05:05:35;5.40;99.90
18502;DHT22;68437;52.236;5.710;2023-11-18T05:08:03;5.40;99.90
18502;DHT22;68437;52.236;5.710;2023-11-18T05:10:31;5.40;99.90
18502;DHT22;68437;52.236;5.710;2023-11-18T05:12:58;5.40;99.90
18502;DHT22;68437;52.236;5.710;2023-11-18T05:15:25;5.40;99.90
18502;DHT22;68437;52.236;5.710;2023-11-18T05:17:54;5.40;99.90
18502;DHT22;68437;52.236;5.710;2023-11-18T05:20:21;5.40;99.90
18502;DHT22;68437;52.236;5.710;2023-11-18T05:22:48;5.40;99.90
18502;DHT22;68437;52.236;5.710;2023-11-18T05:25:15;5.40;99.90
18502;DHT22;68437;52.236;5.710;2023-11-18T05:27:41;5.50;99.90
18502;DHT22;68437;52.236;5.710;2023-11-18T05:30:10;5.50;99.90
18502;DHT22;68437;52.236;5.710;2023-11-18T05:32:37;5.50;99.90
18502;DHT22;68437;52.236;5.710;2023-11-18T05:35:13;5.50;99.90
18502;DHT22;68437;52.236;5.710;2023-11-18T05:37:40;5.50;99.90
18502;DHT22;68437;52.236;5.710;2023-11-18T05:40:07;5.50;99.90
18502;DHT22;68437;52.236;5.710;2023-11-18T05:42:37;5.50;99.90
18502;DHT22;68437;52.236;5.710;2023-11-18T05:45:07;5.50;99.90
18502;DHT22;68437;52.236;5.710;2023-11-18T05:47:44;5.60;99.90
18502;DHT22;68437;52.236;5.710;2023-11-18T05:50:12;5.50;99.90
18502;DHT22;68437;52.236;5.710;2023-11-18T05:52:40;5.60;99.90
18502;DHT22;68437;52.236;5.710;2023-11-18T05:55:10;5.60;99.90
18502;DHT22;68437;52.236;5.710;2023-11-18T05:57:36;5.60;99.90
18502;DHT22;68437;52.236;5.710;2023-11-18T06:00:04;5.60;99.90
18502;DHT22;68437;52.236;5.710;2023-11-18T06:02:34;5.60;99.90
18502;DHT22;68437;52.236;5.710;2023-11-18T06:05:02;5.60;99.90
18502;DHT22;68437;52.236;5.710;2023-11-18T06:07:32;5.60;99.90
18502;DHT22;68437;52.236;5.710;2023-11-18T06:09:59;5.60;99.90
18502;DHT22;68437;52.236;5.710;2023-11-18T06:12:27;5.60;99.90
18502;DHT22;68437;52.236;5.710;2023-11-18T06:14:54;5.60;99.90
18502;DHT22;68437;52.236;5.710;2023-11-18T06:17:20;5.60;99.90
18502;DHT22;68437;52.236;5.710;2023-11-18T06:19:49;5.60;99.90
18502;DHT22;68437;52.236;5.710;2023-11-18T06:22:16;5.60;99.90
18502;DHT22;68437;52.236;5.710;2023-11-18T06:24:44;5.60;99.90
18502;DHT22;68437;52.236;5.710;2023-11-18T06:27:11;5.60;99.90
18502;DHT22;68437;52.236;5.710;2023-11-18T06:29:38;5.60;99.90
18502;DHT22;68437;52.236;5.710;2023-11-18T06:32:05;5.60;99.90
18502;DHT22;68437;52.236;5.710;2023-11-18T06:34:38;5.60;99.90
18502;DHT22;68437;52.236;5.710;2023-11-18T06:37:05;5.60;99.90
18502;DHT22;68437;52.236;5.710;2023-11-18T06:39:35;5.60;99.90
18502;DHT22;68437;52.236;5.710;2023-11-18T06:42:06;5.60;99.90
18502;DHT22;68437;52.236;5.710;2023-11-18T06:44:36;5.60;99.90
18502;DHT22;68437;52.236;5.710;2023-11-18T06:47:03;5.60;99.90
18502;DHT22;68437;52.236;5.710;2023-11-18T06:49:31;5.60;99.90
18502;DHT22;68437;52.236;5.710;2023-11-18T06:52:00;5.70;99.90
18502;DHT22;68437;52.236;5.710;2023-11-18T06:54:28;5.60;99.90
18502;DHT22;68437;52.236;5.710;2023-11-18T06:56:55;5.60;99.90
18502;DHT22;68437;52.236;5.710;2023-11-18T06:59:24;5.70;99.90
18502;DHT22;68437;52.236;5.710;2023-11-18T07:01:50;5.60;99.90
18502;DHT22;68437;52.236;5.710;2023-11-18T07:04:17;5.70;99.90
18502;DHT22;68437;52.236;5.710;2023-11-18T07:06:44;5.70;99.90
18502;DHT22;68437;52.236;5.710;2023-11-18T07:09:14;5.70;99.90
18502;DHT22;68437;52.236;5.710;2023-11-18T07:11:43;5.70;99.90
18502;DHT22;68437;52.236;5.710;2023-11-18T07:14:12;5.60;99.90
18502;DHT22;68437;52.236;5.710;2023-11-18T07:16:41;5.60;99.90
18502;DHT22;68437;52.236;5.710;2023-11-18T07:19:08;5.60;99.90
18502;DHT22;68437;52.236;5.710;2023-11-18T07:21:40;5.60;99.90
18502;DHT22;68437;52.236;5.710;2023-11-18T07:24:08;5.70;99.90
18502;DHT22;68437;52.236;5.710;2023-11-18T07:26:35;5.70;99.90
18502;DHT22;68437;52.236;5.710;2023-11-18T07:29:02;5.70;99.90
18502;DHT22;68437;52.236;5.710;2023-11-18T07:31:29;5.70;99.90
18502;DHT22;68437;52.236;5.710;2023-11-18T07:33:57;5.70;99.90
18502;DHT22;68437;52.236;5.710;2023-11-18T07:36:24;5.70;99.90
18502;DHT22;68437;52.236;5.710;2023-11-18T07:38:51;5.70;99.90
18502;DHT22;68437;52.236;5.710;2023-11-18T07:41:18;5.70;99.90
18502;DHT22;68437;52.236;5.710;2023-11-18T07:43:50;5.70;99.90
18502;DHT22;68437;52.236;5.710;2023-11-18T07:46:18;5.70;99.90
18502;DHT22;68437;52.236;5.710;2023-11-18T07:48:47;5.70;99.90
18502;DHT22;68437;52.236;5.710;2023-11-18T07:51:15;5.70;99.90
18502;DHT22;68437;52.236;5.710;2023-11-18T07:53:42;5.70;99.90
18502;DHT22;68437;52.236;5.710;2023-11-18T07:56:09;5.70;99.90
18502;DHT22;68437;52.236;5.710;2023-11-18T07:58:37;5.80;99.90
18502;DHT22;68437;52.236;5.710;2023-11-18T08:01:04;5.70;99.90
18502;DHT22;68437;52.236;5.710;2023-11-18T08:03:33;5.80;99.90
18502;DHT22;68437;52.236;5.710;2023-11-18T08:06:00;5.80;99.90
18502;DHT22;68437;52.236;5.710;2023-11-18T08:08:29;5.80;99.90
18502;DHT22;68437;52.236;5.710;2023-11-18T08:10:56;5.80;99.90
18502;DHT22;68437;52.236;5.710;2023-11-18T08:13:23;5.80;99.90
18502;DHT22;68437;52.236;5.710;2023-11-18T08:15:50;5.80;99.90
18502;DHT22;68437;52.236;5.710;2023-11-18T08:18:17;5.80;99.90
18502;DHT22;68437;52.236;5.710;2023-11-18T08:20:47;5.80;99.90
18502;DHT22;68437;52.236;5.710;2023-11-18T08:23:13;5.80;99.90
18502;DHT22;68437;52.236;5.710;2023-11-18T08:25:42;5.70;99.90
18502;DHT22;68437;52.236;5.710;2023-11-18T08:28:09;5.80;99.90
18502;DHT22;68437;52.236;5.710;2023-11-18T08:30:37;5.80;99.90
18502;DHT22;68437;52.236;5.710;2023-11-18T08:33:04;5.80;99.90
18502;DHT22;68437;52.236;5.710;2023-11-18T08:35:34;5.80;99.90
18502;DHT22;68437;52.236;5.710;2023-11-18T08:38:01;5.80;99.90
18502;DHT22;68437;52.236;5.710;2023-11-18T08:40:29;5.90;99.90
18502;DHT22;68437;52.236;5.710;2023-11-18T08:42:58;5.90;99.90
18502;DHT22;68437;52.236;5.710;2023-11-18T08:45:25;5.90;99.90
18502;DHT22;68437;52.236;5.710;2023-11-18T08:47:55;5.90;99.90
18502;DHT22;68437;52.236;5.710;2023-11-18T08:50:22;5.90;99.90
18502;DHT22;68437;52.236;5.710;2023-11-18T08:52:51;6.00;99.90
18502;DHT22;68437;52.236;5.710;2023-11-18T08:55:23;6.00;99.90
18502;DHT22;68437;52.236;5.710;2023-11-18T08:58:05;6.00;99.90
18502;DHT22;68437;52.236;5.710;2023-11-18T09:00:42;6.00;99.90
18502;DHT22;68437;52.236;5.710;2023-11-18T09:03:12;6.10;99.90
18502;DHT22;68437;52.236;5.710;2023-11-18T09:05:44;6.10;99.90
18502;DHT22;68437;52.236;5.710;2023-11-18T09:08:23;6.10;99.90
18502;DHT22;68437;52.236;5.710;2023-11-18T09:10:50;6.10;99.90
18502;DHT22;68437;52.236;5.710;2023-11-18T09:13:21;6.10;99.90
18502;DHT22;68437;52.236;5.710;2023-11-18T09:15:48;6.20;99.90
18502;DHT22;68437;52.236;5.710;2023-11-18T09:18:15;6.20;99.90
18502;DHT22;68437;52.236;5.710;2023-11-18T09:20:45;6.20;99.90
18502;DHT22;68437;52.236;5.710;2023-11-18T09:23:12;6.20;99.90
18502;DHT22;68437;52.236;5.710;2023-11-18T09:25:41;6.20;99.90
18502;DHT22;68437;52.236;5.710;2023-11-18T09:28:08;6.30;99.90
18502;DHT22;68437;52.236;5.710;2023-11-18T09:30:41;6.30;99.90
18502;DHT22;68437;52.236;5.710;2023-11-18T09:33:18;6.40;99.90
18502;DHT22;68437;52.236;5.710;2023-11-18T09:35:52;6.40;99.90
18502;DHT22;68437;52.236;5.710;2023-11-18T09:38:22;6.40;99.90
18502;DHT22;68437;52.236;5.710;2023-11-18T09:40:51;6.40;99.90
18502;DHT22;68437;52.236;5.710;2023-11-18T09:43:19;6.40;99.90
18502;DHT22;68437;52.236;5.710;2023-11-18T09:45:50;6.40;99.90
18502;DHT22;68437;52.236;5.710;2023-11-18T09:48:21;6.50;99.90
18502;DHT22;68437;52.236;5.710;2023-11-18T09:50:51;6.50;99.90
18502;DHT22;68437;52.236;5.710;2023-11-18T09:53:19;6.50;99.90
18502;DHT22;68437;52.236;5.710;2023-11-18T09:55:49;6.60;99.90
18502;DHT22;68437;52.236;5.710;2023-11-18T09:58:21;6.60;99.90
18502;DHT22;68437;52.236;5.710;2023-11-18T10:00:55;6.60;99.90
18502;DHT22;68437;52.236;5.710;2023-11-18T10:03:24;6.60;99.90
18502;DHT22;68437;52.236;5.710;2023-11-18T10:05:51;6.60;99.90
18502;DHT22;68437;52.236;5.710;2023-11-18T10:08:20;6.60;99.90
18502;DHT22;68437;52.236;5.710;2023-11-18T10:10:51;6.70;99.90
18502;DHT22;68437;52.236;5.710;2023-11-18T10:13:31;6.70;99.90
18502;DHT22;68437;52.236;5.710;2023-11-18T10:16:02;6.70;99.90
18502;DHT22;68437;52.236;5.710;2023-11-18T10:18:30;6.60;99.90
18502;DHT22;68437;52.236;5.710;2023-11-18T10:21:00;6.60;99.90
18502;DHT22;68437;52.236;5.710;2023-11-18T10:23:29;6.60;99.90
18502;DHT22;68437;52.236;5.710;2023-11-18T10:25:59;6.60;99.90
18502;DHT22;68437;52.236;5.710;2023-11-18T10:28:29;6.60;99.90
18502;DHT22;68437;52.236;5.710;2023-11-18T10:30:59;6.60;99.90
18502;DHT22;68437;52.236;5.710;2023-11-18T10:33:30;6.60;99.90
18502;DHT22;68437;52.236;5.710;2023-11-18T10:35:58;6.60;99.90
18502;DHT22;68437;52.236;5.710;2023-11-18T10:38:29;6.60;99.90
18502;DHT22;68437;52.236;5.710;2023-11-18T10:40:57;6.50;99.90
18502;DHT22;68437;52.236;5.710;2023-11-18T10:43:25;6.50;99.90
18502;DHT22;68437;52.236;5.710;2023-11-18T10:46:04;6.50;99.90
18502;DHT22;68437;52.236;5.710;2023-11-18T10:48:39;6.50;99.90
18502;DHT22;68437;52.236;5.710;2023-11-18T10:51:08;6.50;99.90
18502;DHT22;68437;52.236;5.710;2023-11-18T10:53:37;6.50;99.90
18502;DHT22;68437;52.236;5.710;2023-11-18T10:56:05;6.50;99.90
18502;DHT22;68437;52.236;5.710;2023-11-18T10:58:36;6.50;99.90
18502;DHT22;68437;52.236;5.710;2023-11-18T11:01:06;6.50;99.90
18502;DHT22;68437;52.236;5.710;2023-11-18T11:03:52;6.50;99.90
18502;DHT22;68437;52.236;5.710;2023-11-18T11:06:21;6.50;99.90
18502;DHT22;68437;52.236;5.710;2023-11-18T11:08:49;6.50;99.90
18502;DHT22;68437;52.236;5.710;2023-11-18T11:11:17;6.50;99.90
18502;DHT22;68437;52.236;5.710;2023-11-18T11:13:49;6.40;99.90
18502;DHT22;68437;52.236;5.710;2023-11-18T11:16:19;6.40;99.90
18502;DHT22;68437;52.236;5.710;2023-11-18T11:18:54;6.40;99.90
18502;DHT22;68437;52.236;5.710;2023-11-18T11:21:25;6.50;99.90
18502;DHT22;68437;52.236;5.710;2023-11-18T11:23:55;6.50;99.90
18502;DHT22;68437;52.236;5.710;2023-11-18T11:26:34;6.50;99.90
18502;DHT22;68437;52.236;5.710;2023-11-18T11:29:23;6.50;99.90
18502;DHT22;68437;52.236;5.710;2023-11-18T11:31:58;6.50;99.90
18502;DHT22;68437;52.236;5.710;2023-11-18T11:34:30;6.50;99.90
18502;DHT22;68437;52.236;5.710;2023-11-18T11:36:59;6.50;99.90
18502;DHT22;68437;52.236;5.710;2023-11-18T11:39:27;6.50;99.90
18502;DHT22;68437;52.236;5.710;2023-11-18T11:41:55;6.60;99.90
18502;DHT22;68437;52.236;5.710;2023-11-18T11:44:24;6.60;99.90
18502;DHT22;68437;52.236;5.710;2023-11-18T11:46:58;6.60;99.90
18502;DHT22;68437;52.236;5.710;2023-11-18T11:49:27;6.60;99.90
18502;DHT22;68437;52.236;5.710;2023-11-18T11:52:07;6.70;99.90
18502;DHT22;68437;52.236;5.710;2023-11-18T11:54:45;6.70;99.90
18502;DHT22;68437;52.236;5.710;2023-11-18T11:57:15;6.80;99.90
18502;DHT22;68437;52.236;5.710;2023-11-18T11:59:54;6.70;99.90
18502;DHT22;68437;52.236;5.710;2023-11-18T12:02:22;6.80;99.90
18502;DHT22;68437;52.236;5.710;2023-11-18T12:04:53;6.80;99.90
18502;DHT22;68437;52.236;5.710;2023-11-18T12:07:25;6.80;99.90
18502;DHT22;68437;52.236;5.710;2023-11-18T12:09:55;6.80;99.90
18502;DHT22;68437;52.236;5.710;2023-11-18T12:12:23;6.80;99.90
18502;DHT22;68437;52.236;5.710;2023-11-18T12:14:53;6.80;99.90
18502;DHT22;68437;52.236;5.710;2023-11-18T12:17:23;6.80;99.90
18502;DHT22;68437;52.236;5.710;2023-11-18T12:19:54;7.40;99.90
18502;DHT22;68437;52.236;5.710;2023-11-18T12:22:26;7.00;99.90
18502;DHT22;68437;52.236;5.710;2023-11-18T12:27:58;7.00;99.90
18502;DHT22;68437;52.236;5.710;2023-11-18T12:30:41;7.10;99.90
18502;DHT22;68437;52.236;5.710;2023-11-18T12:33:18;7.10;99.90
18502;DHT22;68437;52.236;5.710;2023-11-18T12:39:37;7.10;99.90
18502;DHT22;68437;52.236;5.710;2023-11-18T12:42:09;7.10;99.90
18502;DHT22;68437;52.236;5.710;2023-11-18T12:45:05;7.10;99.90
18502;DHT22;68437;52.236;5.710;2023-11-18T12:48:04;7.10;99.90
18502;DHT22;68437;52.236;5.710;2023-11-18T12:50:38;7.10;99.90
18502;DHT22;68437;52.236;5.710;2023-11-18T12:53:05;7.20;99.90
18502;DHT22;68437;52.236;5.710;2023-11-18T12:55:33;7.20;99.90
18502;DHT22;68437;52.236;5.710;2023-11-18T12:58:01;7.20;99.90
18502;DHT22;68437;52.236;5.710;2023-11-18T13:00:31;7.20;99.90
18502;DHT22;68437;52.236;5.710;2023-11-18T13:02:59;7.20;99.90
18502;DHT22;68437;52.236;5.710;2023-11-18T13:05:26;7.20;99.90
18502;DHT22;68437;52.236;5.710;2023-11-18T13:07:55;7.20;99.90
18502;DHT22;68437;52.236;5.710;2023-11-18T13:10:23;7.20;99.90
18502;DHT22;68437;52.236;5.710;2023-11-18T13:12:54;7.20;99.90
18502;DHT22;68437;52.236;5.710;2023-11-18T13:15:20;7.20;99.90
18502;DHT22;68437;52.236;5.710;2023-11-18T13:18:03;7.20;99.90
18502;DHT22;68437;52.236;5.710;2023-11-18T13:20:31;7.30;99.90
18502;DHT22;68437;52.236;5.710;2023-11-18T13:23:00;7.30;99.90
18502;DHT22;68437;52.236;5.710;2023-11-18T13:25:34;7.30;99.90
18502;DHT22;68437;52.236;5.710;2023-11-18T13:28:03;7.20;99.90
18502;DHT22;68437;52.236;5.710;2023-11-18T13:30:30;7.30;99.90
18502;DHT22;68437;52.236;5.710;2023-11-18T13:32:57;7.30;99.90
18502;DHT22;68437;52.236;5.710;2023-11-18T13:35:24;7.30;99.90
18502;DHT22;68437;52.236;5.710;2023-11-18T13:37:51;7.40;99.90
18502;DHT22;68437;52.236;5.710;2023-11-18T13:40:19;7.30;99.90
18502;DHT22;68437;52.236;5.710;2023-11-18T13:42:58;7.30;99.90
18502;DHT22;68437;52.236;5.710;2023-11-18T13:45:28;7.40;99.90
18502;DHT22;68437;52.236;5.710;2023-11-18T13:47:56;7.30;99.90
18502;DHT22;68437;52.236;5.710;2023-11-18T13:50:23;7.30;99.90
18502;DHT22;68437;52.236;5.710;2023-11-18T13:52:50;7.30;99.90
18502;DHT22;68437;52.236;5.710;2023-11-18T13:55:19;7.30;99.90
18502;DHT22;68437;52.236;5.710;2023-11-18T13:57:52;7.40;99.90
18502;DHT22;68437;52.236;5.710;2023-11-18T14:00:22;7.40;99.90
18502;DHT22;68437;52.236;5.710;2023-11-18T14:02:50;7.40;99.90
18502;DHT22;68437;52.236;5.710;2023-11-18T14:05:18;7.40;99.90
18502;DHT22;68437;52.236;5.710;2023-11-18T14:07:48;7.40;99.90
18502;DHT22;68437;52.236;5.710;2023-11-18T14:10:15;7.40;99.90
18502;DHT22;68437;52.236;5.710;2023-11-18T14:13:01;7.40;99.90
18502;DHT22;68437;52.236;5.710;2023-11-18T14:15:31;7.40;99.90
18502;DHT22;68437;52.236;5.710;2023-11-18T14:18:02;7.40;99.90
18502;DHT22;68437;52.236;5.710;2023-11-18T14:20:29;7.40;99.90
18502;DHT22;68437;52.236;5.710;2023-11-18T14:22:57;7.40;99.90
18502;DHT22;68437;52.236;5.710;2023-11-18T14:25:24;7.40;99.90
18502;DHT22;68437;52.236;5.710;2023-11-18T14:27:52;7.40;99.90
18502;DHT22;68437;52.236;5.710;2023-11-18T14:30:20;7.40;99.90
18502;DHT22;68437;52.236;5.710;2023-11-18T14:32:46;7.40;99.90
18502;DHT22;68437;52.236;5.710;2023-11-18T14:35:14;7.50;99.90
18502;DHT22;68437;52.236;5.710;2023-11-18T14:37:42;7.40;99.90
18502;DHT22;68437;52.236;5.710;2023-11-18T14:40:11;7.40;99.90
18502;DHT22;68437;52.236;5.710;2023-11-18T14:42:41;7.40;99.90
18502;DHT22;68437;52.236;5.710;2023-11-18T14:45:09;7.40;99.90
18502;DHT22;68437;52.236;5.710;2023-11-18T14:47:37;7.40;99.90
18502;DHT22;68437;52.236;5.710;2023-11-18T14:50:05;7.40;99.90
18502;DHT22;68437;52.236;5.710;2023-11-18T14:52:42;7.40;99.90
18502;DHT22;68437;52.236;5.710;2023-11-18T14:55:09;7.40;99.90
18502;DHT22;68437;52.236;5.710;2023-11-18T14:57:37;7.40;99.90
18502;DHT22;68437;52.236;5.710;2023-11-18T15:00:06;7.40;99.90
18502;DHT22;68437;52.236;5.710;2023-11-18T15:02:48;7.40;99.90
18502;DHT22;68437;52.236;5.710;2023-11-18T15:05:16;7.40;99.90
18502;DHT22;68437;52.236;5.710;2023-11-18T15:07:49;7.40;99.90
18502;DHT22;68437;52.236;5.710;2023-11-18T15:10:17;7.40;99.90
18502;DHT22;68437;52.236;5.710;2023-11-18T15:12:47;7.50;99.90
18502;DHT22;68437;52.236;5.710;2023-11-18T15:15:14;7.50;99.90
18502;DHT22;68437;52.236;5.710;2023-11-18T15:17:45;7.50;99.90
18502;DHT22;68437;52.236;5.710;2023-11-18T15:20:12;7.50;99.90
18502;DHT22;68437;52.236;5.710;2023-11-18T15:22:40;7.40;99.90
18502;DHT22;68437;52.236;5.710;2023-11-18T15:25:11;7.40;99.90
18502;DHT22;68437;52.236;5.710;2023-11-18T15:27:40;7.40;99.90
18502;DHT22;68437;52.236;5.710;2023-11-18T15:30:07;7.40;99.90
18502;DHT22;68437;52.236;5.710;2023-11-18T15:32:37;7.50;99.90
18502;DHT22;68437;52.236;5.710;2023-11-18T15:35:04;7.50;99.90
18502;DHT22;68437;52.236;5.710;2023-11-18T15:37:36;7.50;99.90
18502;DHT22;68437;52.236;5.710;2023-11-18T15:40:05;7.50;99.90
18502;DHT22;68437;52.236;5.710;2023-11-18T15:42:38;7.50;99.90
18502;DHT22;68437;52.236;5.710;2023-11-18T15:45:08;7.50;99.90
18502;DHT22;68437;52.236;5.710;2023-11-18T15:47:37;7.50;99.90
18502;DHT22;68437;52.236;5.710;2023-11-18T15:50:05;7.50;99.90
18502;DHT22;68437;52.236;5.710;2023-11-18T15:52:33;7.50;99.90
18502;DHT22;68437;52.236;5.710;2023-11-18T15:55:01;7.50;99.90
18502;DHT22;68437;52.236;5.710;2023-11-18T15:57:28;7.50;99.90
18502;DHT22;68437;52.236;5.710;2023-11-18T15:59:56;7.50;99.90
18502;DHT22;68437;52.236;5.710;2023-11-18T16:02:22;7.50;99.90
18502;DHT22;68437;52.236;5.710;2023-11-18T16:04:50;7.50;99.90